Time;durP1;ratioP1;P1;durP2;ratioP2;P2;SDS_P1;SDS_P2;PMS_P1;PMS_P2;Temp;Humidity;BMP_temperature;BMP_pressure;BME280_temperature;BME280_humidity;BME280_pressure;Samples;Min_cycle;Max_cycle;Signal;HPM_P1;HPM_P2
2023/03/07 00:03:00;;;;;;;2.17;1.97;;;;;;;15.76;46.89;95564.09;10329383;28;20042;-31
2023/03/07 00:08:00;;;;;;;3.37;2.00;;;;;;;15.78;47.19;95569.94;10330148;28;20786;-32
2023/03/07 00:13:01;;;;;;;3.93;2.10;;;;;;;15.78;47.59;95563.19;10330029;28;20125;-31
2023/03/07 00:18:02;;;;;;;3.30;2.30;;;;;;;15.77;47.46;95565.75;10331436;28;20073;-31
2023/03/07 00:23:03;;;;;;;2.60;1.95;;;;;;;15.81;45.92;95573.28;10330228;28;20061;-31
2023/03/07 00:28:04;;;;;;;3.15;2.10;;;;;;;15.80;46.17;95575.81;10329600;28;20470;-32
2023/03/07 00:33:04;;;;;;;2.13;1.90;;;;;;;15.80;45.85;95571.63;10312798;28;20125;-32
2023/03/07 00:38:04;;;;;;;3.47;2.20;;;;;;;15.79;45.91;95580.00;10329665;28;20103;-31
2023/03/07 00:43:05;;;;;;;2.53;1.70;;;;;;;15.82;45.58;95574.97;10328438;28;20514;-31
2023/03/07 00:48:06;;;;;;;3.17;1.95;;;;;;;15.83;45.83;95574.09;10330192;28;20034;-31
2023/03/07 00:53:06;;;;;;;2.97;1.60;;;;;;;15.81;45.01;95570.78;10329129;28;20030;-32
2023/03/07 00:58:06;;;;;;;3.37;2.00;;;;;;;15.84;44.97;95582.50;10328571;28;20494;-32
2023/03/07 01:03:07;;;;;;;2.95;1.70;;;;;;;15.81;45.68;95574.97;10329406;28;20490;-31
2023/03/07 01:08:07;;;;;;;1.90;1.70;;;;;;;15.79;45.45;95564.88;10305462;28;20574;-31
2023/03/07 01:13:09;;;;;;;2.35;1.70;;;;;;;15.79;45.66;95564.06;10275710;28;20030;-31
2023/03/07 01:18:10;;;;;;;2.20;1.90;;;;;;;15.75;45.08;95557.34;10329308;28;20038;-32
2023/03/07 01:23:10;;;;;;;2.35;1.85;;;;;;;15.76;45.09;95554.81;10310233;28;20034;-32
2023/03/07 01:28:12;;;;;;;2.00;1.60;;;;;;;15.75;45.37;95555.66;10323372;28;20049;-32
2023/03/07 01:33:13;;;;;;;1.88;1.63;;;;;;;15.77;45.73;95556.50;10270465;28;20038;-32
2023/03/07 01:38:13;;;;;;;2.50;1.70;;;;;;;15.77;46.19;95553.16;10285611;28;20030;-31
2023/03/07 01:43:27;;;;;;;1.75;1.42;;;;;;;15.76;46.52;95539.69;10309689;28;20026;-32
2023/03/07 01:48:34;;;;;;;1.95;1.48;;;;;;;15.77;45.61;95536.31;10310943;28;20514;-31
2023/03/07 01:53:35;;;;;;;3.13;1.80;;;;;;;15.73;45.44;95522.06;10305773;28;20043;-32
2023/03/07 01:58:38;;;;;;;2.83;1.60;;;;;;;15.73;45.48;95509.44;10270438;28;20058;-31
2023/03/07 02:03:53;;;;;;;3.55;2.35;;;;;;;15.71;45.48;95507.78;10269987;28;20042;-32
2023/03/07 02:08:55;;;;;;;2.45;1.60;;;;;;;15.71;45.64;95506.06;10272187;28;20518;-32
2023/03/07 02:13:55;;;;;;;1.83;1.60;;;;;;;15.73;46.06;95499.34;10280310;28;20066;-31
2023/03/07 02:18:56;;;;;;;2.75;1.90;;;;;;;15.73;45.39;95503.53;10310008;28;20034;-32
2023/03/07 02:24:12;;;;;;;1.75;1.65;;;;;;;15.70;45.44;95489.25;10309617;28;20042;-31
2023/03/07 02:29:13;;;;;;;2.10;1.52;;;;;;;15.68;45.26;95469.97;10299759;28;20038;-31
2023/03/07 02:34:28;;;;;;;1.88;1.60;;;;;;;15.69;45.15;95482.53;10309374;28;20061;-32
2023/03/07 02:39:46;;;;;;;1.42;1.23;;;;;;;15.67;45.27;95476.69;10309243;28;20117;-31
2023/03/07 02:45:00;;;;;;;1.60;1.50;;;;;;;15.69;45.52;95472.47;10311996;28;20037;-32
2023/03/07 02:50:04;;;;;;;2.45;1.50;;;;;;;15.69;45.51;95472.47;10316777;28;20037;-31
2023/03/07 02:55:06;;;;;;;1.77;1.30;;;;;;;15.73;45.98;95481.69;10344406;28;20026;-31
2023/03/07 03:00:11;;;;;;;2.33;1.40;;;;;;;15.74;45.79;95482.50;10324226;28;20034;-31
2023/03/07 03:05:12;;;;;;;2.30;1.42;;;;;;;15.74;45.35;95470.75;10318064;28;20030;-31
2023/03/07 03:10:13;;;;;;;1.60;1.40;;;;;;;15.74;45.47;95462.31;10349941;28;20058;-31
2023/03/07 03:15:14;;;;;;;2.33;1.63;;;;;;;15.68;45.69;95468.25;10316136;28;20046;-30
2023/03/07 03:20:15;;;;;;;1.52;1.42;;;;;;;15.69;45.31;95462.38;10335175;28;20612;-31
2023/03/07 03:25:16;;;;;;;1.88;1.40;;;;;;;15.71;45.10;95463.19;10313092;28;20070;-32
2023/03/07 03:30:18;;;;;;;1.75;1.20;;;;;;;15.74;44.79;95450.56;10323784;28;20040;-31
2023/03/07 03:35:18;;;;;;;1.43;1.33;;;;;;;15.76;44.14;95451.38;10329806;28;20040;-31
2023/03/07 03:40:20;;;;;;;1.52;1.33;;;;;;;15.75;44.54;95442.13;10330563;28;20321;-31
2023/03/07 03:45:23;;;;;;;1.63;1.50;;;;;;;15.75;44.31;95442.13;10323510;28;20187;-31
2023/03/07 03:50:24;;;;;;;1.70;1.58;;;;;;;15.75;44.66;95444.66;10316044;28;20045;-32
2023/03/07 03:55:24;;;;;;;1.23;1.13;;;;;;;15.74;44.46;95435.41;10344566;28;20046;-32
2023/03/07 04:00:25;;;;;;;1.13;1.02;;;;;;;15.76;44.37;95437.94;10309258;28;20046;-32
2023/03/07 04:05:25;;;;;;;1.37;1.00;;;;;;;15.76;43.87;95433.72;10330691;28;20093;-32
2023/03/07 04:10:26;;;;;;;1.70;1.27;;;;;;;15.74;44.42;95429.53;10345087;28;21036;-31
2023/03/07 04:15:26;;;;;;;1.25;1.15;;;;;;;15.76;44.94;95426.13;10328156;28;20307;-31
2023/03/07 04:20:26;;;;;;;1.33;1.23;;;;;;;15.75;45.70;95416.91;10347089;28;20030;-31
2023/03/07 04:25:27;;;;;;;1.50;1.40;;;;;;;15.70;45.17;95400.97;10351619;28;20736;-32
2023/03/07 04:30:27;;;;;;;1.65;1.27;;;;;;;15.74;43.88;95397.56;10324120;28;20521;-32
2023/03/07 04:35:28;;;;;;;1.25;0.95;;;;;;;15.72;45.04;95406.00;10331838;28;20030;-32
2023/03/07 04:40:29;;;;;;;1.75;1.40;;;;;;;15.67;45.02;95393.44;10316249;28;20049;-32
2023/03/07 04:45:32;;;;;;;2.05;1.45;;;;;;;15.73;44.56;95395.06;10327015;28;20034;-32
2023/03/07 04:50:32;;;;;;;1.50;1.40;;;;;;;15.75;44.36;95386.63;10307961;28;20030;-33
2023/03/07 04:55:33;;;;;;;1.60;1.27;;;;;;;15.71;43.89;95379.94;10335045;28;20033;-32
2023/03/07 05:00:33;;;;;;;2.42;1.27;;;;;;;15.79;43.30;95387.44;10331446;28;20026;-32
2023/03/07 05:05:34;;;;;;;2.78;1.40;;;;;;;15.79;43.72;95384.91;10302845;28;20483;-31
2023/03/07 05:10:36;;;;;;;1.90;1.50;;;;;;;15.82;42.80;95390.75;10312186;28;20096;-32
2023/03/07 05:15:37;;;;;;;2.70;1.65;;;;;;;15.85;42.50;95395.75;10320809;28;20061;-30
2023/03/07 05:20:41;;;;;;;1.40;1.30;;;;;;;15.88;42.16;95392.38;10318498;28;20481;-28
2023/03/07 05:25:42;;;;;;;1.90;1.40;;;;;;;15.89;42.19;95384.81;10328804;28;20030;-29
2023/03/07 05:30:43;;;;;;;2.35;1.42;;;;;;;15.84;41.81;95376.44;10314750;28;20100;-29
2023/03/07 05:35:45;;;;;;;2.33;1.45;;;;;;;15.81;42.52;95378.16;10314745;28;20026;-30
2023/03/07 05:40:47;;;;;;;3.17;1.98;;;;;;;15.82;43.76;95378.16;10331942;28;20034;-28
2023/03/07 05:45:48;;;;;;;4.07;1.45;;;;;;;15.80;43.71;95373.97;10308583;28;20034;-29
2023/03/07 05:50:48;;;;;;;3.17;1.80;;;;;;;15.80;43.22;95364.72;10321673;28;20060;-30
2023/03/07 05:55:51;;;;;;;2.95;2.17;;;;;;;15.76;42.99;95358.03;10306310;28;20117;-31
2023/03/07 06:00:53;;;;;;;2.00;1.50;;;;;;;15.73;43.77;95358.06;10317636;28;20038;-33
2023/03/07 06:05:53;;;;;;;4.25;2.28;;;;;;;15.73;43.05;95363.13;10316775;28;20397;-31
2023/03/07 06:10:54;;;;;;;3.42;2.35;;;;;;;15.72;42.76;95366.50;10305910;28;20057;-31
2023/03/07 06:15:56;;;;;;;3.70;2.75;;;;;;;15.72;43.93;95363.13;10285653;28;20089;-31
2023/03/07 06:20:59;;;;;;;4.13;3.00;;;;;;;15.65;43.06;95354.78;10256454;28;20394;-32
2023/03/07 06:26:02;;;;;;;19.52;6.75;;;;;;;15.21;37.81;95359.41;10272238;28;20030;-31
2023/03/07 06:31:12;;;;;;;18.30;5.80;;;;;;;14.97;37.72;95371.38;10257923;28;20121;-31
2023/03/07 06:36:15;;;;;;;11.57;4.72;;;;;;;15.29;40.69;95369.41;10263162;28;20035;-31
2023/03/07 06:41:18;;;;;;;10.32;4.45;;;;;;;15.41;41.55;95370.16;10272858;28;20042;-32
2023/03/07 06:46:20;;;;;;;7.55;3.28;;;;;;;15.46;41.79;95360.84;10267950;28;20129;-33
2023/03/07 06:51:21;;;;;;;6.32;3.45;;;;;;;15.47;41.83;95349.94;10273031;28;20041;-31
2023/03/07 06:56:24;;;;;;;7.57;3.22;;;;;;;15.55;41.98;95350.69;10270797;28;20053;-33
2023/03/07 07:01:24;;;;;;;5.57;2.92;;;;;;;15.62;42.42;95344.72;10270393;28;20092;-33
2023/03/07 07:06:27;;;;;;;6.78;2.58;;;;;;;15.58;42.76;95330.47;10280686;28;20050;-31
2023/03/07 07:11:27;;;;;;;6.20;2.70;;;;;;;15.63;42.13;95346.41;10266510;28;20490;-32
2023/03/07 07:16:28;;;;;;;3.80;2.38;;;;;;;15.58;42.17;95343.09;10271728;28;20035;-31
2023/03/07 07:21:29;;;;;;;3.35;2.45;;;;;;;15.59;42.71;95352.31;10319230;28;20034;-31
2023/03/07 07:26:29;;;;;;;3.50;2.60;;;;;;;15.62;42.47;95364.88;10330558;28;20034;-31
2023/03/07 07:31:32;;;;;;;3.20;2.67;;;;;;;15.61;42.49;95362.41;10303367;28;20030;-32
2023/03/07 07:36:33;;;;;;;6.20;2.85;;;;;;;15.54;43.39;95354.03;10304990;28;20030;-31
2023/03/07 07:41:33;;;;;;;4.40;2.50;;;;;;;15.62;42.71;95357.31;10326879;28;20502;-32
2023/03/07 07:46:34;;;;;;;5.80;2.60;;;;;;;15.57;43.88;95341.41;10343108;28;20121;-31
2023/03/07 07:51:36;;;;;;;7.03;2.38;;;;;;;15.57;44.04;95358.22;10304935;28;20045;-31
2023/03/07 07:56:36;;;;;;;3.30;2.20;;;;;;;15.60;43.58;95359.03;10314401;28;20041;-32
2023/03/07 08:01:37;;;;;;;6.00;2.33;;;;;;;15.59;43.85;95359.88;10355418;28;20168;-31
2023/03/07 08:06:37;;;;;;;6.13;2.27;;;;;;;15.60;43.61;95360.75;10322127;28;20030;-31
2023/03/07 08:11:37;;;;;;;2.73;1.67;;;;;;;15.58;43.72;95353.19;10338040;28;20282;-32
2023/03/07 08:16:38;;;;;;;2.53;1.70;;;;;;;15.59;43.99;95357.38;10332883;28;20620;-31
2023/03/07 08:21:38;;;;;;;3.03;1.73;;;;;;;15.59;43.95;95349.81;10330803;28;20042;-31
2023/03/07 08:26:39;;;;;;;2.28;1.75;;;;;;;15.60;44.63;95354.00;10325020;28;20042;-32
2023/03/07 08:31:42;;;;;;;3.08;2.33;;;;;;;15.59;45.11;95351.47;10354366;28;20042;-31
2023/03/07 08:36:42;;;;;;;3.55;1.80;;;;;;;15.61;43.77;95343.03;10350106;28;20498;-31
2023/03/07 08:41:43;;;;;;;1.98;1.70;;;;;;;15.54;44.39;95341.44;10338377;28;20038;-32
2023/03/07 08:46:43;;;;;;;1.60;1.50;;;;;;;15.55;44.35;95345.66;10342240;28;20246;-31
2023/03/07 08:51:46;;;;;;;4.63;1.70;;;;;;;15.55;44.36;95343.13;10332039;28;20080;-31
2023/03/07 08:56:47;;;;;;;2.80;1.70;;;;;;;15.51;44.37;95338.13;10337096;28;20080;-31
2023/03/07 09:01:47;;;;;;;3.93;1.90;;;;;;;15.52;44.26;95339.81;10340166;28;20102;-31
2023/03/07 09:06:47;;;;;;;4.03;2.13;;;;;;;15.51;44.16;95333.91;10344225;28;20289;-31
2023/03/07 09:11:48;;;;;;;3.00;2.13;;;;;;;15.50;44.50;95336.44;10341003;28;20034;-31
2023/03/07 09:16:48;;;;;;;1.60;1.40;;;;;;;15.49;44.25;95325.53;10339521;28;20033;-33
2023/03/07 09:21:49;;;;;;;3.28;2.10;;;;;;;15.47;43.77;95319.69;10340510;28;20037;-32
2023/03/07 09:26:49;;;;;;;3.75;1.55;;;;;;;15.47;43.89;95313.78;10326052;28;20495;-31
2023/03/07 09:31:50;;;;;;;1.77;1.58;;;;;;;15.49;44.11;95328.06;10344012;28;20038;-32
2023/03/07 09:36:51;;;;;;;2.03;1.70;;;;;;;15.50;44.20;95323.84;10308364;28;20399;-31
2023/03/07 09:41:57;;;;;;;2.25;1.58;;;;;;;15.54;44.05;95326.31;10323692;28;20053;-31
2023/03/07 09:47:22;;;;;;;2.15;1.42;;;;;;;15.58;44.13;95305.25;10322706;28;20041;-32
2023/03/07 09:52:26;;;;;;;2.35;1.77;;;;;;;15.60;44.09;95307.78;10342384;28;20042;-32
2023/03/07 09:57:33;;;;;;;2.60;1.80;;;;;;;15.60;43.41;95306.06;10301807;28;20046;-31
2023/03/07 10:03:06;;;;;;;2.10;1.87;;;;;;;15.59;43.49;95303.56;10341865;28;20076;-31
2023/03/07 10:08:12;;;;;;;2.75;1.98;;;;;;;15.58;43.27;95297.69;10350353;28;20027;-32
2023/03/07 10:13:16;;;;;;;1.98;1.75;;;;;;;15.58;44.01;95290.13;10335802;28;20034;-31
2023/03/07 10:18:22;;;;;;;2.25;1.65;;;;;;;15.58;42.76;95291.78;10329111;28;20053;-32
2023/03/07 10:23:53;;;;;;;2.60;1.83;;;;;;;15.58;43.10;95287.59;10357780;28;20516;-32
2023/03/07 10:28:57;;;;;;;2.67;2.03;;;;;;;15.59;43.21;95279.19;10309641;28;20085;-31
2023/03/07 10:33:58;;;;;;;2.03;1.48;;;;;;;15.59;42.78;95279.19;10343419;28;20033;-32
2023/03/07 10:39:09;;;;;;;2.53;1.80;;;;;;;15.58;43.10;95271.63;10344398;28;20120;-32
2023/03/07 10:44:16;;;;;;;2.60;1.77;;;;;;;15.57;42.70;95268.28;10351689;28;20403;-31
2023/03/07 10:49:40;;;;;;;2.72;1.90;;;;;;;15.58;43.42;95271.63;10363676;28;20410;-32
2023/03/07 10:54:40;;;;;;;2.03;1.60;;;;;;;15.57;43.31;95255.66;10356188;28;20470;-31
2023/03/07 10:59:43;;;;;;;2.17;1.60;;;;;;;15.56;43.07;95264.09;10335123;28;20072;-31
2023/03/07 11:04:45;;;;;;;2.63;1.95;;;;;;;15.50;42.60;95251.53;10363396;28;20030;-31
2023/03/07 11:09:46;;;;;;;2.47;1.75;;;;;;;15.61;43.04;95267.38;10354188;28;20117;-31
2023/03/07 11:14:49;;;;;;;2.17;1.80;;;;;;;15.60;43.70;95268.22;10328508;28;20475;-32
2023/03/07 11:19:55;;;;;;;1.52;1.42;;;;;;;15.60;43.11;95275.78;10325020;28;20043;-31
2023/03/07 11:25:21;;;;;;;2.33;1.58;;;;;;;15.62;42.62;95258.94;10340436;28;20054;-30
2023/03/07 11:30:23;;;;;;;2.30;1.75;;;;;;;15.64;42.00;95253.91;10330341;28;20152;-31
2023/03/07 11:35:50;;;;;;;2.78;2.47;;;;;;;15.64;42.06;95261.47;10323232;28;20046;-31
2023/03/07 11:41:49;;;;;;;2.47;1.70;;;;;;;15.66;41.88;95242.09;10334821;28;20034;-31
2023/03/07 11:47:27;;;;;;;2.17;1.85;;;;;;;15.68;41.89;95230.31;10171566;29;20526;-31
2023/03/07 11:53:06;;;;;;;2.80;2.10;;;;;;;15.61;41.87;95227.03;10340478;28;20053;-31
2023/03/07 11:58:20;;;;;;;2.00;1.50;;;;;;;15.65;41.72;95202.59;10340444;28;20033;-32
2023/03/07 12:03:41;;;;;;;2.58;1.70;;;;;;;15.65;41.87;95193.34;10356456;28;20477;-32
2023/03/07 12:08:56;;;;;;;4.90;2.88;;;;;;;15.56;40.32;95173.28;10340190;28;20133;-32
2023/03/07 12:14:10;;;;;;;4.60;2.72;;;;;;;15.67;41.00;95185.75;10343332;28;20030;-33
2023/03/07 12:19:34;;;;;;;2.10;1.90;;;;;;;15.73;41.54;95175.56;10300555;28;20134;-32
2023/03/07 12:24:42;;;;;;;2.22;1.65;;;;;;;15.71;42.39;95170.53;10334117;28;20100;-32
2023/03/07 12:29:52;;;;;;;6.60;3.20;;;;;;;15.35;38.54;95166.00;10330535;28;20046;-32
2023/03/07 12:35:16;;;;;;;11.57;3.45;;;;;;;15.53;40.98;95163.22;10339672;28;20180;-32
2023/03/07 12:40:39;;;;;;;11.60;2.80;;;;;;;15.58;42.43;95166.53;10345127;28;20638;-40
2023/03/07 12:46:18;;;;;;;7.75;2.67;;;;;;;15.63;42.23;95159.75;10315678;28;20113;-31
2023/03/07 12:51:42;;;;;;;3.88;2.17;;;;;;;15.67;41.60;95151.28;10338333;28;20038;-31
2023/03/07 12:56:51;;;;;;;4.07;2.20;;;;;;;15.69;42.29;95131.09;10320660;28;20120;-32
2023/03/07 13:02:15;;;;;;;2.45;1.70;;;;;;;15.70;41.77;95128.50;10339649;28;20030;-31
2023/03/07 13:07:23;;;;;;;3.25;1.98;;;;;;;15.69;42.74;95131.91;10330200;28;20035;-32
2023/03/07 13:12:36;;;;;;;5.50;2.42;;;;;;;15.69;41.46;95114.25;10329437;28;20400;-31
2023/03/07 13:17:37;;;;;;;2.75;1.90;;;;;;;15.67;40.89;95120.16;10352484;28;20046;-32
2023/03/07 13:22:37;;;;;;;2.53;1.93;;;;;;;15.71;41.85;95120.09;10359487;28;20034;-31
2023/03/07 13:27:40;;;;;;;2.38;1.60;;;;;;;15.73;41.78;95141.09;10334177;28;20823;-31
2023/03/07 13:32:49;;;;;;;3.08;1.85;;;;;;;15.76;41.25;95145.28;10328719;28;20042;-31
2023/03/07 13:38:03;;;;;;;3.67;1.95;;;;;;;15.75;41.94;95146.97;10347192;28;20041;-31
2023/03/07 13:43:23;;;;;;;3.75;2.00;;;;;;;15.73;41.47;95128.50;10327180;28;20021;-32
2023/03/07 13:48:23;;;;;;;2.83;1.83;;;;;;;15.73;40.91;95135.22;10321864;28;20038;-31
2023/03/07 13:53:32;;;;;;;3.13;2.27;;;;;;;15.73;41.27;95131.00;10356075;28;20034;-32
2023/03/07 13:58:36;;;;;;;3.17;2.42;;;;;;;15.76;43.89;95127.63;10335025;28;20301;-31
2023/03/07 14:03:41;;;;;;;3.42;1.40;;;;;;;15.77;45.57;95116.66;10310830;28;20030;-31
2023/03/07 14:08:43;;;;;;;3.03;1.90;;;;;;;15.79;44.06;95123.34;10326987;28;20406;-31
2023/03/07 14:13:56;;;;;;;5.18;1.70;;;;;;;15.79;43.15;95120.00;10327403;28;20045;-32
2023/03/07 14:19:45;;;;;;;3.30;1.90;;;;;;;15.77;41.73;95117.47;10343103;28;20045;-32
2023/03/07 14:24:46;;;;;;;3.20;1.92;;;;;;;15.76;41.85;95125.09;10351476;28;20418;-32
2023/03/07 14:29:51;;;;;;;2.95;2.17;;;;;;;15.75;40.71;95124.25;10334119;28;20054;-33
2023/03/07 14:34:54;;;;;;;4.53;1.83;;;;;;;15.77;42.01;95122.53;10342153;28;20050;-31
2023/03/07 14:39:57;;;;;;;3.38;1.83;;;;;;;15.75;42.82;95111.63;10348194;28;20042;-31
2023/03/07 14:45:33;;;;;;;5.03;2.10;;;;;;;15.77;43.10;95099.81;10336884;28;20038;-31
2023/03/07 14:50:38;;;;;;;4.57;2.25;;;;;;;15.73;44.54;95110.84;10322137;28;20046;-31
2023/03/07 14:55:41;;;;;;;8.65;2.38;;;;;;;15.69;44.19;95106.66;10317613;28;20034;-32
2023/03/07 15:00:42;;;;;;;4.47;2.05;;;;;;;15.70;43.07;95099.94;10326167;28;20057;-31
2023/03/07 15:05:48;;;;;;;2.07;1.83;;;;;;;15.69;43.79;95109.19;10325046;28;20022;-31
2023/03/07 15:11:04;;;;;;;2.58;2.13;;;;;;;15.67;43.25;95118.47;10341024;28;20042;-31
2023/03/07 15:16:10;;;;;;;5.20;2.17;;;;;;;15.70;43.42;95115.91;10335211;28;20513;-32
2023/03/07 15:21:23;;;;;;;6.22;2.17;;;;;;;15.67;44.86;95110.06;10337541;28;20049;-32
2023/03/07 15:26:26;;;;;;;4.70;1.95;;;;;;;15.74;42.43;95109.13;10324266;28;20066;-32
2023/03/07 15:31:46;;;;;;;14.32;4.00;;;;;;;15.80;40.89;95117.47;10346865;28;20494;-31
2023/03/07 15:36:46;;;;;;;6.38;2.15;;;;;;;15.76;39.07;95120.88;10325112;28;20184;-32
2023/03/07 15:42:05;;;;;;;3.47;2.92;;;;;;;15.76;37.86;95115.00;10330002;28;20179;-34
2023/03/07 15:47:13;;;;;;;3.10;2.28;;;;;;;15.76;37.55;95110.78;10339545;28;20025;-31
2023/03/07 15:52:37;;;;;;;4.22;2.05;;;;;;;15.78;37.44;95105.72;10329440;28;20080;-31
2023/03/07 15:57:49;;;;;;;3.45;2.45;;;;;;;15.76;37.31;95105.72;10337303;28;20048;-31
2023/03/07 16:02:50;;;;;;;5.63;2.30;;;;;;;15.74;38.48;95097.34;10330201;28;20030;-31
2023/03/07 16:07:52;;;;;;;3.47;2.58;;;;;;;15.71;37.50;95096.56;10325365;28;20051;-31
2023/03/07 16:12:53;;;;;;;6.47;2.20;;;;;;;15.73;38.45;95099.91;10343736;28;20538;-31
2023/03/07 16:17:55;;;;;;;2.40;2.05;;;;;;;15.72;37.16;95116.75;10338584;28;20120;-31
2023/03/07 16:22:56;;;;;;;3.80;2.58;;;;;;;15.78;41.62;95139.31;10354585;28;20044;-31
2023/03/07 16:27:57;;;;;;;8.85;2.33;;;;;;;15.81;42.30;95146.88;10337489;28;20042;-31
2023/03/07 16:32:58;;;;;;;10.20;3.05;;;;;;;15.76;41.38;95148.63;10336121;28;20088;-31
2023/03/07 16:37:58;;;;;;;6.23;2.40;;;;;;;15.75;37.40;95152.00;10362420;28;20092;-31
2023/03/07 16:42:58;;;;;;;4.03;2.30;;;;;;;15.83;38.76;95172.91;10361360;28;20285;-31
2023/03/07 16:48:01;;;;;;;12.73;2.78;;;;;;;15.85;47.78;95176.25;10317954;28;20041;-31
2023/03/07 16:53:01;;;;;;;11.43;2.47;;;;;;;15.87;45.99;95182.09;10328250;28;20046;-31
2023/03/07 16:58:04;;;;;;;3.83;2.58;;;;;;;15.80;39.86;95193.16;10317194;28;20057;-31
2023/03/07 17:03:04;;;;;;;7.78;3.58;;;;;;;15.86;41.71;95212.41;10319467;28;20034;-32
2023/03/07 17:08:06;;;;;;;10.02;2.92;;;;;;;15.81;38.98;95220.03;10322508;28;20034;-31
2023/03/07 17:13:13;;;;;;;3.45;2.67;;;;;;;15.76;38.54;95221.78;10327898;28;20065;-31
2023/03/07 17:18:15;;;;;;;2.90;2.28;;;;;;;15.72;38.56;95210.06;10324330;28;20054;-32
2023/03/07 17:23:15;;;;;;;3.53;2.00;;;;;;;15.79;39.63;95239.38;10326503;28;20349;-32
2023/03/07 17:28:15;;;;;;;4.32;2.75;;;;;;;15.80;41.53;95242.75;10299290;28;20300;-32
2023/03/07 17:33:16;;;;;;;3.00;2.03;;;;;;;15.80;42.10;95241.09;10355263;28;20137;-37
2023/03/07 17:38:16;;;;;;;6.20;2.22;;;;;;;15.80;42.66;95258.75;10347764;28;20034;-31
2023/03/07 17:43:17;;;;;;;4.00;2.60;;;;;;;15.81;43.15;95255.38;10340182;28;20103;-31
2023/03/07 17:48:17;;;;;;;3.70;2.10;;;;;;;15.80;41.04;95252.84;10343402;28;20542;-31
2023/03/07 17:53:17;;;;;;;3.70;2.10;;;;;;;15.79;40.99;95268.84;10341914;28;20038;-34
2023/03/07 17:58:20;;;;;;;5.80;2.10;;;;;;;15.81;40.80;95279.75;10340737;28;20815;-30
2023/03/07 18:03:20;;;;;;;3.63;1.67;;;;;;;15.82;41.44;95278.88;10329704;28;20046;-31
2023/03/07 18:08:21;;;;;;;5.87;1.80;;;;;;;15.80;44.93;95268.84;10307056;28;20035;-31
2023/03/07 18:13:23;;;;;;;2.63;2.17;;;;;;;15.83;44.01;95273.84;10293750;28;20044;-32
2023/03/07 18:18:23;;;;;;;4.32;2.80;;;;;;;15.85;42.42;95287.25;10337177;28;20037;-31
2023/03/07 18:23:24;;;;;;;3.80;2.83;;;;;;;15.82;39.24;95291.50;10309300;28;20487;-32
2023/03/07 18:28:25;;;;;;;3.63;2.08;;;;;;;15.80;42.79;95319.31;10327704;28;20038;-31
2023/03/07 18:33:27;;;;;;;3.90;2.15;;;;;;;15.78;43.26;95315.13;10334206;28;20073;-31
2023/03/07 18:38:28;;;;;;;2.45;2.22;;;;;;;15.78;42.86;95315.13;10355280;28;20041;-31
2023/03/07 18:43:28;;;;;;;3.33;2.38;;;;;;;15.78;42.52;95315.94;10351049;28;20446;-34
2023/03/07 18:48:28;;;;;;;3.30;2.10;;;;;;;15.79;43.73;95334.44;10331159;28;20442;-31
2023/03/07 18:53:30;;;;;;;3.50;1.90;;;;;;;15.85;40.88;95339.44;10357376;28;20293;-31
2023/03/07 18:58:30;;;;;;;3.97;2.25;;;;;;;15.85;42.83;95345.28;10323212;28;20077;-31
2023/03/07 19:03:31;;;;;;;4.13;2.58;;;;;;;15.84;40.17;95346.16;10333544;28;20462;-32
2023/03/07 19:08:31;;;;;;;4.23;2.27;;;;;;;15.82;39.70;95359.63;10344379;28;20040;-30
2023/03/07 19:13:34;;;;;;;3.20;2.30;;;;;;;15.83;39.72;95349.53;10341881;28;20312;-31
2023/03/07 19:18:35;;;;;;;4.60;2.30;;;;;;;15.81;42.35;95358.81;10343154;28;20038;-32
2023/03/07 19:23:36;;;;;;;5.05;2.88;;;;;;;15.79;41.39;95340.31;10354912;28;20033;-30
2023/03/07 19:28:38;;;;;;;4.63;2.45;;;;;;;15.62;37.86;95344.72;10316149;28;20039;-30
2023/03/07 19:33:39;;;;;;;4.03;2.75;;;;;;;15.71;41.19;95339.56;10320222;28;20041;-31
2023/03/07 19:38:40;;;;;;;4.03;2.47;;;;;;;15.73;43.99;95342.94;10326827;28;20034;-31
2023/03/07 19:43:41;;;;;;;3.95;3.10;;;;;;;15.66;37.94;95336.28;10342058;28;20191;-31
2023/03/07 19:48:44;;;;;;;3.90;2.92;;;;;;;15.52;36.87;95353.22;10343089;28;20556;-32
2023/03/07 19:53:45;;;;;;;7.32;3.72;;;;;;;15.46;36.61;95343.19;10336824;28;20473;-31
2023/03/07 19:58:46;;;;;;;4.07;2.92;;;;;;;15.42;36.30;95336.53;10322681;28;20040;-31
2023/03/07 20:03:47;;;;;;;5.20;3.38;;;;;;;15.43;36.43;95338.19;10343321;28;20039;-30
2023/03/07 20:08:50;;;;;;;5.97;3.03;;;;;;;15.42;36.62;95356.72;10335250;28;20446;-31
2023/03/07 20:13:50;;;;;;;5.22;3.35;;;;;;;15.43;36.28;95358.38;10317590;28;20052;-31
2023/03/07 20:18:52;;;;;;;4.67;3.13;;;;;;;15.45;36.87;95366.75;10334362;28;20034;-31
2023/03/07 20:23:53;;;;;;;4.78;3.50;;;;;;;15.47;36.45;95372.63;10340409;28;20034;-30
2023/03/07 20:28:55;;;;;;;3.65;2.90;;;;;;;15.49;36.23;95388.59;10343635;28;20026;-31
2023/03/07 20:33:59;;;;;;;5.25;3.70;;;;;;;15.51;36.07;95396.97;10299793;28;20554;-32
2023/03/07 20:39:03;;;;;;;5.10;3.55;;;;;;;15.65;40.00;95395.16;10282178;28;20042;-31
2023/03/07 20:44:06;;;;;;;4.85;3.25;;;;;;;15.72;39.54;95396.75;10287717;28;20026;-31
2023/03/07 20:49:06;;;;;;;4.68;2.92;;;;;;;15.69;41.13;95394.25;10348482;28;20048;-30
2023/03/07 20:54:11;;;;;;;4.78;3.15;;;;;;;15.73;40.51;95388.34;10339349;28;20034;-32
2023/03/07 20:59:15;;;;;;;3.80;3.22;;;;;;;15.72;45.37;95389.19;10335154;28;20038;-31
2023/03/07 21:04:18;;;;;;;5.95;3.25;;;;;;;15.73;45.81;95393.38;10341449;28;20039;-32
2023/03/07 21:09:19;;;;;;;6.78;3.05;;;;;;;15.76;44.72;95392.53;10348091;28;20495;-30
2023/03/07 21:14:20;;;;;;;3.80;2.75;;;;;;;15.78;43.00;95390.81;10343870;28;20046;-31
2023/03/07 21:19:20;;;;;;;8.30;2.88;;;;;;;15.77;41.84;95415.19;10344566;28;20045;-32
2023/03/07 21:24:20;;;;;;;4.10;2.80;;;;;;;15.76;42.77;95431.19;10318755;28;20034;-31
2023/03/07 21:29:21;;;;;;;3.23;2.67;;;;;;;15.74;42.91;95430.38;10328740;28;20292;-31
2023/03/07 21:34:21;;;;;;;9.00;3.60;;;;;;;15.73;44.13;95437.94;10354773;28;20040;-31
2023/03/07 21:39:25;;;;;;;7.20;2.40;;;;;;;15.72;41.73;95441.31;10322952;28;20053;-30
2023/03/07 21:44:25;;;;;;;3.28;2.45;;;;;;;15.73;42.21;95437.94;10343896;28;20316;-31
2023/03/07 21:49:26;;;;;;;4.28;2.50;;;;;;;15.71;42.33;95445.53;10348027;28;20065;-30
2023/03/07 21:54:26;;;;;;;4.93;3.17;;;;;;;15.71;42.70;95445.53;10334929;28;20042;-31
2023/03/07 21:59:27;;;;;;;4.77;2.83;;;;;;;15.71;43.09;95453.09;10346944;28;20040;-31
2023/03/07 22:04:27;;;;;;;3.90;2.35;;;;;;;15.66;44.24;95457.34;10314981;28;20081;-31
2023/03/07 22:09:27;;;;;;;3.37;2.63;;;;;;;15.69;43.15;95452.28;10333599;28;20414;-31
2023/03/07 22:14:28;;;;;;;3.73;2.80;;;;;;;15.66;43.79;95464.94;10346874;28;20030;-31
2023/03/07 22:19:28;;;;;;;5.23;2.90;;;;;;;15.62;43.73;95463.25;10334982;28;20045;-31
2023/03/07 22:24:29;;;;;;;3.75;3.10;;;;;;;15.69;45.16;95472.47;10368300;28;20054;-31
2023/03/07 22:29:29;;;;;;;3.08;2.20;;;;;;;15.66;45.37;95457.34;10362835;28;20041;-31
2023/03/07 22:34:29;;;;;;;3.97;2.17;;;;;;;15.70;44.13;95448.91;10330193;28;20080;-31
2023/03/07 22:39:30;;;;;;;4.37;2.73;;;;;;;15.69;43.23;95424.53;10334513;28;20510;-31
2023/03/07 22:44:30;;;;;;;3.40;2.67;;;;;;;15.62;44.08;95435.53;10349473;28;20289;-31
2023/03/07 22:49:31;;;;;;;4.03;2.77;;;;;;;15.62;43.89;95435.53;10346468;28;20045;-31
2023/03/07 22:54:32;;;;;;;3.58;2.42;;;;;;;15.62;44.59;95427.94;10359082;28;20297;-31
2023/03/07 22:59:32;;;;;;;3.38;2.38;;;;;;;15.61;44.03;95418.72;10350644;28;20046;-31
2023/03/07 23:04:33;;;;;;;2.87;2.60;;;;;;;15.61;44.08;95423.75;10345603;28;20048;-31
2023/03/07 23:09:33;;;;;;;3.43;2.70;;;;;;;15.61;43.53;95433.84;10324722;28;20112;-31
2023/03/07 23:14:35;;;;;;;2.67;2.40;;;;;;;15.59;43.99;95440.59;10320406;28;20563;-32
2023/03/07 23:19:35;;;;;;;3.00;2.30;;;;;;;15.59;43.58;95443.13;10341930;28;20033;-31
2023/03/07 23:24:36;;;;;;;4.73;2.60;;;;;;;15.61;42.48;95441.41;10358708;28;20032;-31
2023/03/07 23:29:36;;;;;;;4.00;2.70;;;;;;;15.58;43.76;95435.56;10339843;28;20379;-31
2023/03/07 23:34:36;;;;;;;3.43;2.60;;;;;;;15.59;43.42;95458.25;10348353;28;20364;-30